Time;durP1;ratioP1;P1;durP2;ratioP2;P2;SDS_P1;SDS_P2;PMS_P1;PMS_P2;Temp;Humidity;BMP_temperature;BMP_pressure;BME280_temperature;BME280_humidity;BME280_pressure;Samples;Min_cycle;Max_cycle;Signal;HPM_P1;HPM_P2
2023/06/07 00:04:23;;;;;;;;;;;21.20;54.00;;;;;;10400002;27;89249;-65
2023/06/07 00:09:25;;;;;;;;;;;21.20;54.10;;;;;;10421592;28;88272;-64
2023/06/07 00:14:27;;;;;;;;;;;21.20;54.00;;;;;;10419874;28;89279;-64
2023/06/07 00:19:29;;;;;;;;;;;21.20;54.00;;;;;;10422139;28;89574;-64
2023/06/07 00:24:32;;;;;;;;;;;21.20;53.90;;;;;;10421318;28;90478;-64
2023/06/07 00:29:34;;;;;;;;;;;21.20;53.80;;;;;;10420996;28;90003;-65
2023/06/07 00:34:36;;;;;;;;;;;21.20;53.80;;;;;;10420902;28;92188;-64
2023/06/07 00:39:38;;;;;;;;;;;21.20;53.80;;;;;;10420029;28;88478;-64
2023/06/07 00:44:40;;;;;;;;;;;21.20;53.90;;;;;;10419876;28;88325;-64
2023/06/07 00:49:42;;;;;;;;;;;21.20;53.80;;;;;;10402332;28;88382;-64
2023/06/07 00:54:44;;;;;;;;;;;21.20;53.70;;;;;;10419785;28;88489;-64
2023/06/07 00:59:46;;;;;;;;;;;21.20;54.80;;;;;;10420024;28;87638;-64
2023/06/07 01:04:49;;;;;;;;;;;21.20;53.70;;;;;;10401523;28;90200;-64
2023/06/07 01:09:52;;;;;;;;;;;21.20;53.70;;;;;;10418409;28;88460;-64
2023/06/07 01:14:54;;;;;;;;;;;21.20;53.70;;;;;;10418510;28;91274;-65
2023/06/07 01:19:58;;;;;;;;;;;21.10;53.70;;;;;;10418943;28;89106;-64
2023/06/07 01:25:02;;;;;;;;;;;21.10;53.70;;;;;;10402218;28;89596;-64
2023/06/07 01:30:07;;;;;;;;;;;21.10;53.70;;;;;;10418767;28;90049;-64
2023/06/07 01:35:09;;;;;;;;;;;21.10;53.80;;;;;;10419619;28;88953;-65
2023/06/07 01:40:12;;;;;;;;;;;21.10;53.70;;;;;;10417871;28;89049;-64
2023/06/07 01:45:14;;;;;;;;;;;21.10;53.70;;;;;;10399389;28;89058;-65
2023/06/07 01:50:22;;;;;;;;;;;21.10;53.80;;;;;;10418631;28;89015;-67
2023/06/07 01:55:24;;;;;;;;;;;21.10;53.70;;;;;;10417205;28;90118;-65
2023/06/07 02:00:28;;;;;;;;;;;21.10;53.70;;;;;;10417247;28;88829;-64
2023/06/07 02:05:32;;;;;;;;;;;21.10;53.70;;;;;;10415866;28;89856;-65
2023/06/07 02:10:34;;;;;;;;;;;21.10;53.70;;;;;;10416864;28;90628;-64
2023/06/07 02:15:36;;;;;;;;;;;21.10;54.80;;;;;;10417956;28;90140;-64
2023/06/07 02:20:38;;;;;;;;;;;21.10;53.80;;;;;;10416916;28;90070;-64
2023/06/07 02:25:39;;;;;;;;;;;21.10;53.80;;;;;;10398149;27;88803;-64
2023/06/07 02:30:41;;;;;;;;;;;21.00;53.70;;;;;;10400119;28;89329;-64
2023/06/07 02:35:44;;;;;;;;;;;21.00;53.70;;;;;;10417691;28;89664;-64
2023/06/07 02:40:45;;;;;;;;;;;21.10;53.80;;;;;;10400641;28;88895;-64
2023/06/07 02:45:47;;;;;;;;;;;21.10;53.80;;;;;;10416231;28;88779;-65
2023/06/07 02:50:49;;;;;;;;;;;21.10;54.70;;;;;;10416143;28;90012;-64
2023/06/07 02:55:51;;;;;;;;;;;21.10;53.70;;;;;;10415718;28;89267;-64
2023/06/07 03:00:54;;;;;;;;;;;21.10;53.60;;;;;;10415383;28;89020;-64
2023/06/07 03:05:59;;;;;;;;;;;21.10;53.70;;;;;;10415724;28;89036;-64
2023/06/07 03:11:01;;;;;;;;;;;21.00;53.50;;;;;;10398337;28;90034;-64
2023/06/07 03:16:03;;;;;;;;;;;21.10;53.60;;;;;;10397129;28;89185;-64
2023/06/07 03:21:06;;;;;;;;;;;21.00;53.50;;;;;;10416722;28;89711;-64
2023/06/07 03:26:09;;;;;;;;;;;21.00;53.50;;;;;;10415933;28;89124;-64
2023/06/07 03:31:11;;;;;;;;;;;21.00;53.50;;;;;;10416284;28;88372;-64
2023/06/07 03:36:13;;;;;;;;;;;21.00;53.50;;;;;;10415389;28;88719;-65
2023/06/07 03:41:15;;;;;;;;;;;21.00;53.50;;;;;;10415176;28;90527;-64
2023/06/07 03:46:17;;;;;;;;;;;21.00;53.50;;;;;;10414534;28;89127;-64
2023/06/07 03:51:18;;;;;;;;;;;21.00;53.60;;;;;;10414137;28;90098;-65
2023/06/07 03:56:21;;;;;;;;;;;21.00;53.60;;;;;;10415752;28;89289;-64
2023/06/07 04:01:25;;;;;;;;;;;20.90;53.50;;;;;;10414930;28;90004;-65
2023/06/07 04:06:28;;;;;;;;;;;20.90;53.50;;;;;;10415750;28;88657;-64
2023/06/07 04:11:30;;;;;;;;;;;20.90;53.60;;;;;;10414751;28;89008;-64
2023/06/07 04:16:32;;;;;;;;;;;20.90;53.60;;;;;;10415136;28;88921;-64
2023/06/07 04:21:33;;;;;;;;;;;20.90;53.70;;;;;;10414026;28;88082;-64
2023/06/07 04:26:37;;;;;;;;;;;20.90;53.60;;;;;;10397498;28;88928;-65
2023/06/07 04:31:39;;;;;;;;;;;20.90;53.70;;;;;;10413143;28;89291;-65
2023/06/07 04:36:49;;;;;;;;;;;20.90;53.60;;;;;;10395174;28;89754;-65
2023/06/07 04:41:52;;;;;;;;;;;20.90;53.70;;;;;;10413306;28;90032;-65
2023/06/07 04:52:13;;;;;;;;;;;20.90;53.70;;;;;;10363972;28;88416;-65
2023/06/07 04:57:15;;;;;;;;;;;20.90;53.70;;;;;;10379700;28;90345;-65
2023/06/07 05:02:17;;;;;;;;;;;20.80;53.80;;;;;;10378601;28;88882;-65
2023/06/07 05:07:19;;;;;;;;;;;20.90;53.80;;;;;;10380019;28;90109;-66
2023/06/07 05:12:21;;;;;;;;;;;20.90;53.90;;;;;;10361461;28;89516;-66
2023/06/07 05:17:23;;;;;;;;;;;20.90;53.80;;;;;;10378526;28;88454;-65
2023/06/07 05:22:25;;;;;;;;;;;20.90;53.80;;;;;;10377823;28;89133;-66
2023/06/07 05:27:27;;;;;;;;;;;20.90;53.70;;;;;;10358617;28;89915;-65
2023/06/07 05:32:30;;;;;;;;;;;20.80;53.50;;;;;;10377439;28;88437;-65
2023/06/07 05:37:31;;;;;;;;;;;20.80;54.60;;;;;;10377681;28;88800;-65
2023/06/07 05:42:38;;;;;;;;;;;20.80;55.50;;;;;;10379270;28;90014;-65
2023/06/07 05:47:41;;;;;;;;;;;20.80;55.70;;;;;;10376353;28;88180;-64
2023/06/07 05:52:42;;;;;;;;;;;20.80;55.50;;;;;;10377061;28;89025;-65
2023/06/07 05:57:45;;;;;;;;;;;20.90;55.50;;;;;;10378012;28;90018;-65
2023/06/07 06:02:46;;;;;;;;;;;20.80;55.10;;;;;;10377831;28;87978;-65
2023/06/07 06:07:48;;;;;;;;;;;20.80;55.10;;;;;;10376832;28;89081;-65
2023/06/07 06:12:50;;;;;;;;;;;20.80;55.10;;;;;;10376415;28;89222;-65
2023/06/07 06:17:55;;;;;;;;;;;20.80;55.10;;;;;;10375194;28;89919;-65
2023/06/07 06:22:57;;;;;;;;;;;20.80;55.10;;;;;;10358585;28;90168;-66
2023/06/07 06:27:59;;;;;;;;;;;20.80;55.20;;;;;;10376943;28;89455;-65
2023/06/07 06:33:02;;;;;;;;;;;20.80;55.10;;;;;;10375419;28;88598;-65
2023/06/07 06:38:04;;;;;;;;;;;20.80;55.00;;;;;;10375469;28;89079;-65
2023/06/07 06:43:06;;;;;;;;;;;20.80;55.10;;;;;;10376375;28;90442;-65
2023/06/07 06:48:07;;;;;;;;;;;20.80;55.10;;;;;;10356739;28;90137;-65
2023/06/07 06:53:09;;;;;;;;;;;20.80;56.10;;;;;;10376737;28;88294;-65
2023/06/07 06:58:11;;;;;;;;;;;20.70;55.00;;;;;;10357101;28;90167;-65
2023/06/07 07:03:13;;;;;;;;;;;20.70;56.00;;;;;;10356888;28;89054;-65
2023/06/07 07:08:15;;;;;;;;;;;20.70;54.90;;;;;;10373852;28;89738;-65
2023/06/07 07:13:17;;;;;;;;;;;20.80;54.90;;;;;;10375075;28;90262;-65
2023/06/07 07:18:20;;;;;;;;;;;20.80;54.70;;;;;;10374656;28;89905;-65
2023/06/07 07:23:22;;;;;;;;;;;20.80;54.60;;;;;;10373097;28;89214;-65
2023/06/07 07:28:24;;;;;;;;;;;20.90;54.60;;;;;;10374222;28;89150;-65
2023/06/07 07:33:26;;;;;;;;;;;21.00;54.50;;;;;;10373942;28;90494;-65
2023/06/07 07:38:32;;;;;;;;;;;21.00;54.40;;;;;;10374625;28;90252;-64
2023/06/07 07:43:34;;;;;;;;;;;21.00;54.40;;;;;;10374580;28;89241;-65
2023/06/07 07:48:39;;;;;;;;;;;21.00;54.30;;;;;;10373445;28;88890;-65
2023/06/07 07:53:42;;;;;;;;;;;21.00;54.30;;;;;;10374449;28;89092;-64
2023/06/07 07:58:50;;;;;;;;;;;21.10;54.30;;;;;;10372311;28;90816;-65
2023/06/07 08:03:52;;;;;;;;;;;21.10;54.30;;;;;;10339167;28;89096;-64
2023/06/07 08:08:54;;;;;;;;;;;21.10;54.20;;;;;;10373290;28;90239;-65
2023/06/07 08:13:56;;;;;;;;;;;21.10;54.20;;;;;;10372954;28;89783;-65
2023/06/07 08:18:58;;;;;;;;;;;21.20;54.30;;;;;;10374051;28;88399;-65
2023/06/07 08:24:00;;;;;;;;;;;21.20;54.10;;;;;;10373568;28;89067;-66
2023/06/07 08:29:03;;;;;;;;;;;21.10;54.10;;;;;;10380083;28;89012;-65
2023/06/07 08:34:04;;;;;;;;;;;21.10;54.10;;;;;;10363273;28;88728;-66
2023/06/07 08:39:07;;;;;;;;;;;21.20;54.20;;;;;;10380084;28;90199;-66
2023/06/07 08:44:09;;;;;;;;;;;21.20;54.20;;;;;;10380044;28;89513;-66
2023/06/07 08:49:11;;;;;;;;;;;21.20;54.10;;;;;;10359903;28;89861;-66
2023/06/07 08:54:15;;;;;;;;;;;21.30;54.10;;;;;;10379345;28;90046;-66
2023/06/07 08:59:18;;;;;;;;;;;21.30;54.00;;;;;;10377314;28;88671;-65
2023/06/07 09:04:20;;;;;;;;;;;21.30;53.90;;;;;;10380469;28;88964;-66
2023/06/07 09:09:22;;;;;;;;;;;21.30;54.00;;;;;;10361485;28;89992;-66
2023/06/07 09:14:25;;;;;;;;;;;21.20;54.10;;;;;;10377918;28;90102;-66
2023/06/07 09:19:34;;;;;;;;;;;21.20;54.10;;;;;;10378933;28;90395;-66
2023/06/07 09:24:36;;;;;;;;;;;21.20;54.20;;;;;;10379008;28;88305;-66
2023/06/07 09:29:39;;;;;;;;;;;21.20;54.30;;;;;;10378987;28;89345;-66
2023/06/07 09:34:41;;;;;;;;;;;21.10;54.20;;;;;;10360215;28;90098;-65
2023/06/07 09:39:43;;;;;;;;;;;21.10;54.30;;;;;;10357203;28;90066;-66
2023/06/07 09:44:45;;;;;;;;;;;21.10;54.30;;;;;;10377849;28;89442;-66
2023/06/07 09:49:47;;;;;;;;;;;21.20;54.40;;;;;;10377330;28;89974;-66
2023/06/07 09:54:48;;;;;;;;;;;21.20;54.50;;;;;;10359739;28;89558;-66
2023/06/07 09:59:58;;;;;;;;;;;21.20;54.40;;;;;;10358563;28;89188;-66
2023/06/07 10:05:00;;;;;;;;;;;21.30;54.30;;;;;;10376232;28;89127;-66
2023/06/07 10:10:02;;;;;;;;;;;21.30;54.10;;;;;;10377075;28;89861;-66
2023/06/07 10:15:10;;;;;;;;;;;21.50;54.00;;;;;;10377409;28;89283;-66
2023/06/07 10:20:16;;;;;;;;;;;21.50;53.90;;;;;;10377018;28;90127;-65
2023/06/07 10:25:22;;;;;;;;;;;21.60;53.80;;;;;;10376841;28;90093;-65
2023/06/07 10:30:25;;;;;;;;;;;21.60;53.60;;;;;;10375387;28;90925;-65
2023/06/07 10:35:27;;;;;;;;;;;21.60;53.70;;;;;;10375504;28;89114;-65
2023/06/07 10:40:31;;;;;;;;;;;21.70;53.70;;;;;;10357497;28;88880;-65
2023/06/07 10:45:33;;;;;;;;;;;21.70;53.60;;;;;;10375638;28;90136;-65
2023/06/07 10:50:45;;;;;;;;;;;21.70;53.60;;;;;;10373324;28;89225;-65
2023/06/07 10:55:46;;;;;;;;;;;21.70;53.60;;;;;;10374090;28;88548;-65
2023/06/07 11:00:49;;;;;;;;;;;21.70;53.70;;;;;;10374166;28;88742;-65
2023/06/07 11:05:57;;;;;;;;;;;21.70;53.60;;;;;;10356958;28;88020;-65
2023/06/07 11:11:03;;;;;;;;;;;21.70;53.60;;;;;;10374874;28;90135;-66
2023/06/07 11:16:23;;;;;;;;;;;21.70;53.70;;;;;;10374739;28;90159;-66
2023/06/07 11:21:28;;;;;;;;;;;21.70;53.80;;;;;;10356659;28;90776;-65
2023/06/07 11:26:34;;;;;;;;;;;21.70;53.80;;;;;;10374538;28;90076;-65
2023/06/07 11:31:36;;;;;;;;;;;21.70;53.90;;;;;;10374487;28;90702;-66
2023/06/07 11:36:37;;;;;;;;;;;21.70;53.90;;;;;;10373993;28;88099;-65
2023/06/07 11:41:39;;;;;;;;;;;21.60;53.90;;;;;;10374786;28;90177;-65
2023/06/07 11:46:41;;;;;;;;;;;21.60;53.90;;;;;;10373942;28;89207;-65
2023/06/07 11:51:48;;;;;;;;;;;21.60;54.00;;;;;;10372608;28;88852;-65
2023/06/07 11:56:50;;;;;;;;;;;21.60;54.00;;;;;;10374134;28;88454;-66
2023/06/07 12:01:53;;;;;;;;;;;21.60;54.00;;;;;;10380210;28;90116;-65
2023/06/07 12:06:55;;;;;;;;;;;21.60;55.10;;;;;;10380700;28;90233;-65
2023/06/07 12:11:57;;;;;;;;;;;21.60;54.10;;;;;;10379918;28;90790;-66
2023/06/07 12:17:00;;;;;;;;;;;21.70;54.10;;;;;;10380041;28;89317;-65
2023/06/07 12:22:05;;;;;;;;;;;21.60;54.10;;;;;;10362832;28;89133;-66
2023/06/07 12:27:13;;;;;;;;;;;21.70;54.10;;;;;;10346766;28;89077;-66
2023/06/07 12:32:15;;;;;;;;;;;21.60;54.20;;;;;;10380199;28;89076;-65
2023/06/07 12:37:17;;;;;;;;;;;21.70;54.20;;;;;;10379958;28;89191;-66
2023/06/07 12:42:19;;;;;;;;;;;21.70;54.20;;;;;;10380438;28;90111;-66
2023/06/07 12:47:21;;;;;;;;;;;21.70;54.20;;;;;;10380542;28;89290;-65
2023/06/07 12:52:23;;;;;;;;;;;21.70;54.20;;;;;;10379246;28;90215;-66
2023/06/07 12:57:25;;;;;;;;;;;21.70;54.30;;;;;;10361686;28;89209;-66
2023/06/07 13:02:27;;;;;;;;;;;21.70;54.30;;;;;;10359720;28;89834;-64
2023/06/07 13:07:29;;;;;;;;;;;21.70;54.40;;;;;;10379518;28;90041;-65
2023/06/07 13:12:32;;;;;;;;;;;21.70;54.40;;;;;;10377710;28;89030;-65
2023/06/07 13:17:34;;;;;;;;;;;21.70;54.40;;;;;;10379028;28;88445;-65
2023/06/07 13:22:36;;;;;;;;;;;21.70;54.50;;;;;;10378135;28;90039;-65
2023/06/07 13:27:38;;;;;;;;;;;21.70;54.50;;;;;;10378262;28;88502;-64
2023/06/07 13:32:40;;;;;;;;;;;21.70;54.40;;;;;;10360344;28;89252;-65
2023/06/07 13:37:42;;;;;;;;;;;21.70;54.60;;;;;;10361256;28;88261;-64
2023/06/07 13:42:44;;;;;;;;;;;21.70;54.50;;;;;;10377992;28;90391;-65
2023/06/07 13:47:46;;;;;;;;;;;21.70;54.60;;;;;;10359168;28;89080;-65
2023/06/07 13:52:50;;;;;;;;;;;21.70;54.60;;;;;;10358794;28;88738;-65
2023/06/07 13:57:52;;;;;;;;;;;21.70;54.70;;;;;;10359716;28;90094;-65
2023/06/07 14:02:55;;;;;;;;;;;21.70;54.70;;;;;;10359697;28;88502;-66
2023/06/07 14:07:57;;;;;;;;;;;21.70;54.80;;;;;;10359894;28;90571;-65
2023/06/07 14:12:59;;;;;;;;;;;21.60;54.90;;;;;;10376940;28;90001;-65
2023/06/07 14:18:01;;;;;;;;;;;21.70;54.90;;;;;;10377316;28;90283;-65
2023/06/07 14:23:04;;;;;;;;;;;21.60;55.00;;;;;;10376087;28;89220;-65
2023/06/07 14:28:06;;;;;;;;;;;21.60;54.90;;;;;;10377898;28;88455;-65
2023/06/07 14:33:08;;;;;;;;;;;21.60;55.00;;;;;;10375880;28;89226;-65
2023/06/07 14:38:10;;;;;;;;;;;21.60;55.10;;;;;;10357912;28;89714;-64
2023/06/07 14:43:12;;;;;;;;;;;21.60;55.10;;;;;;10375148;28;89794;-65
2023/06/07 14:48:14;;;;;;;;;;;21.60;55.10;;;;;;10374788;28;89274;-65
2023/06/07 14:53:16;;;;;;;;;;;21.60;55.20;;;;;;10358116;28;89671;-65
2023/06/07 14:58:18;;;;;;;;;;;21.60;55.30;;;;;;10375121;28;90204;-65
2023/06/07 15:03:20;;;;;;;;;;;21.60;55.30;;;;;;10375188;28;89032;-65
2023/06/07 15:08:22;;;;;;;;;;;21.60;55.30;;;;;;10357359;28;89029;-65
2023/06/07 15:13:24;;;;;;;;;;;21.60;55.30;;;;;;10356654;28;90039;-65
2023/06/07 15:18:26;;;;;;;;;;;21.60;55.30;;;;;;10375357;28;88594;-66
2023/06/07 15:23:28;;;;;;;;;;;21.60;55.30;;;;;;10356107;28;89261;-65
2023/06/07 15:28:30;;;;;;;;;;;21.70;55.40;;;;;;10374508;28;90118;-64
2023/06/07 15:33:31;;;;;;;;;;;21.60;55.40;;;;;;10371983;28;89919;-66
2023/06/07 15:38:37;;;;;;;;;;;21.70;55.90;;;;;;10374254;28;89270;-66
2023/06/07 15:43:41;;;;;;;;;;;21.70;55.70;;;;;;10374301;28;89075;-66
2023/06/07 15:48:47;;;;;;;;;;;21.90;56.20;;;;;;10373568;28;88721;-67
2023/06/07 15:53:49;;;;;;;;;;;22.00;56.30;;;;;;10374583;28;89680;-64
2023/06/07 15:58:51;;;;;;;;;;;22.20;56.00;;;;;;10371970;28;89128;-65
2023/06/07 16:03:54;;;;;;;;;;;22.30;55.90;;;;;;10373036;28;89582;-66
2023/06/07 16:09:02;;;;;;;;;;;22.20;56.00;;;;;;10373934;28;88901;-65
2023/06/07 16:14:06;;;;;;;;;;;22.10;56.60;;;;;;10374119;28;91271;-63
2023/06/07 16:19:11;;;;;;;;;;;22.10;56.90;;;;;;10373329;28;90166;-64
2023/06/07 16:24:13;;;;;;;;;;;22.20;57.20;;;;;;10369143;28;90912;-65
2023/06/07 16:29:15;;;;;;;;;;;22.30;56.90;;;;;;10369446;28;90150;-65
2023/06/07 16:34:17;;;;;;;;;;;22.30;56.80;;;;;;10368623;28;89423;-64
2023/06/07 16:39:19;;;;;;;;;;;22.20;57.00;;;;;;10371488;28;88565;-64
2023/06/07 16:44:22;;;;;;;;;;;22.20;57.70;;;;;;10371667;28;88104;-63
2023/06/07 16:49:26;;;;;;;;;;;22.20;57.90;;;;;;10378716;28;89180;-65
2023/06/07 16:54:28;;;;;;;;;;;22.20;58.10;;;;;;10378422;28;89185;-64
2023/06/07 16:59:30;;;;;;;;;;;22.20;58.20;;;;;;10380711;28;89372;-65
2023/06/07 17:04:31;;;;;;;;;;;22.20;58.40;;;;;;10378886;28;90029;-64
2023/06/07 17:09:33;;;;;;;;;;;22.20;58.30;;;;;;10378543;28;88806;-64
2023/06/07 17:14:35;;;;;;;;;;;22.20;58.30;;;;;;10376724;28;89995;-65
2023/06/07 17:19:37;;;;;;;;;;;22.30;58.40;;;;;;10359638;28;89284;-65
2023/06/07 17:24:38;;;;;;;;;;;22.30;58.40;;;;;;10367522;28;89011;-64
2023/06/07 17:29:40;;;;;;;;;;;22.30;58.40;;;;;;10375716;28;89125;-66
2023/06/07 17:34:42;;;;;;;;;;;22.40;58.40;;;;;;10376563;28;90290;-67
2023/06/07 17:39:44;;;;;;;;;;;22.40;58.50;;;;;;10358091;28;89588;-66
2023/06/07 17:44:46;;;;;;;;;;;22.40;58.70;;;;;;10376308;28;88161;-65
2023/06/07 17:49:48;;;;;;;;;;;22.40;58.50;;;;;;10376065;28;88395;-65
2023/06/07 17:54:50;;;;;;;;;;;22.40;58.50;;;;;;10358574;28;90793;-65
2023/06/07 17:59:52;;;;;;;;;;;22.50;58.50;;;;;;10358631;28;88330;-65
2023/06/07 18:04:54;;;;;;;;;;;22.50;58.50;;;;;;10375845;28;91192;-66
2023/06/07 18:09:55;;;;;;;;;;;22.50;58.50;;;;;;10358290;28;89044;-65
2023/06/07 18:14:57;;;;;;;;;;;22.60;58.50;;;;;;10355712;28;90060;-66
2023/06/07 18:19:59;;;;;;;;;;;22.60;59.40;;;;;;10375527;28;89188;-68
2023/06/07 18:25:01;;;;;;;;;;;22.70;59.90;;;;;;10376587;28;88837;-67
2023/06/07 18:30:03;;;;;;;;;;;22.70;59.40;;;;;;10376537;28;89194;-68
2023/06/07 18:35:05;;;;;;;;;;;22.80;59.10;;;;;;10376436;28;89280;-67
2023/06/07 18:40:07;;;;;;;;;;;22.70;58.80;;;;;;10377455;28;89692;-66
2023/06/07 18:45:10;;;;;;;;;;;22.70;58.90;;;;;;10376454;28;90429;-67
2023/06/07 18:50:12;;;;;;;;;;;22.60;58.90;;;;;;10374375;28;89161;-66
2023/06/07 18:55:13;;;;;;;;;;;22.50;58.90;;;;;;10374176;28;90041;-66
2023/06/07 19:00:15;;;;;;;;;;;22.50;59.00;;;;;;10375402;28;88526;-67
2023/06/07 19:05:17;;;;;;;;;;;22.40;59.00;;;;;;10375433;28;89240;-66
2023/06/07 19:10:19;;;;;;;;;;;22.40;59.10;;;;;;10374616;28;90018;-66
2023/06/07 19:15:21;;;;;;;;;;;22.30;59.10;;;;;;10373983;28;90068;-66
2023/06/07 19:20:23;;;;;;;;;;;22.30;59.20;;;;;;10374588;28;90544;-66
2023/06/07 19:25:25;;;;;;;;;;;22.30;59.30;;;;;;10373933;28;90161;-66
2023/06/07 19:30:27;;;;;;;;;;;22.20;59.20;;;;;;10357434;28;88504;-66
2023/06/07 19:35:31;;;;;;;;;;;22.20;59.30;;;;;;10373281;28;109405;-66
2023/06/07 19:40:33;;;;;;;;;;;22.20;59.30;;;;;;10374187;28;92596;-66
2023/06/07 19:45:35;;;;;;;;;;;22.10;59.20;;;;;;10374181;28;90768;-66
2023/06/07 19:50:36;;;;;;;;;;;22.20;59.20;;;;;;10373052;28;90020;-66
2023/06/07 19:55:38;;;;;;;;;;;22.10;59.10;;;;;;10355181;28;89375;-66
2023/06/07 20:00:41;;;;;;;;;;;22.10;59.20;;;;;;10355569;28;89119;-66
2023/06/07 20:05:43;;;;;;;;;;;22.10;59.20;;;;;;10354947;28;89195;-66
2023/06/07 20:10:45;;;;;;;;;;;22.10;59.10;;;;;;10355807;28;90280;-66
2023/06/07 20:15:47;;;;;;;;;;;22.10;59.10;;;;;;10372387;28;90373;-67
2023/06/07 20:20:49;;;;;;;;;;;22.10;59.10;;;;;;10359558;28;90088;-66
2023/06/07 20:25:51;;;;;;;;;;;22.10;59.00;;;;;;10362719;28;89836;-66
2023/06/07 20:30:53;;;;;;;;;;;22.10;58.90;;;;;;10379453;28;89273;-67
2023/06/07 20:35:54;;;;;;;;;;;22.10;58.70;;;;;;10379837;28;90743;-66
2023/06/07 20:40:56;;;;;;;;;;;22.00;58.50;;;;;;10380878;28;90070;-66
2023/06/07 20:45:58;;;;;;;;;;;22.00;58.20;;;;;;10379705;28;90335;-66
2023/06/07 20:51:00;;;;;;;;;;;22.00;58.20;;;;;;10379222;28;89029;-66
2023/06/07 20:56:02;;;;;;;;;;;21.90;58.10;;;;;;10379357;28;88562;-66
2023/06/07 21:01:03;;;;;;;;;;;21.90;58.10;;;;;;10377279;28;89065;-66
2023/06/07 21:06:06;;;;;;;;;;;21.90;58.00;;;;;;10380227;28;88860;-66
2023/06/07 21:11:07;;;;;;;;;;;21.90;58.00;;;;;;10378945;28;88018;-67
2023/06/07 21:16:09;;;;;;;;;;;21.80;57.80;;;;;;10377606;28;89406;-66
2023/06/07 21:21:11;;;;;;;;;;;21.80;57.90;;;;;;10378425;28;89040;-66
2023/06/07 21:26:13;;;;;;;;;;;21.80;57.80;;;;;;10377411;28;91013;-66
2023/06/07 21:31:15;;;;;;;;;;;21.80;57.80;;;;;;10377165;28;89232;-66
2023/06/07 21:36:16;;;;;;;;;;;21.70;57.60;;;;;;10377028;28;89561;-66
2023/06/07 21:41:18;;;;;;;;;;;21.70;57.60;;;;;;10377798;28;90155;-66
2023/06/07 21:46:21;;;;;;;;;;;21.70;57.60;;;;;;10359630;28;89083;-66
2023/06/07 21:51:23;;;;;;;;;;;21.70;57.50;;;;;;10368660;28;88989;-66
2023/06/07 21:56:25;;;;;;;;;;;21.70;57.50;;;;;;10378031;28;90159;-65
2023/06/07 22:01:26;;;;;;;;;;;21.70;57.60;;;;;;10378335;28;89526;-66
2023/06/07 22:06:28;;;;;;;;;;;21.60;57.40;;;;;;10375332;28;89914;-66
2023/06/07 22:11:31;;;;;;;;;;;21.70;57.50;;;;;;10374642;28;90121;-66
2023/06/07 22:16:33;;;;;;;;;;;21.60;57.30;;;;;;10375122;28;90840;-66
2023/06/07 22:21:35;;;;;;;;;;;21.60;57.30;;;;;;10376818;28;88885;-66
2023/06/07 22:26:38;;;;;;;;;;;21.60;57.30;;;;;;10374447;28;88771;-66
2023/06/07 22:31:40;;;;;;;;;;;21.60;57.20;;;;;;10374917;28;89121;-66
2023/06/07 22:36:42;;;;;;;;;;;21.60;57.10;;;;;;10374593;28;89086;-66
2023/06/07 22:41:44;;;;;;;;;;;21.60;57.10;;;;;;10376736;28;89647;-66
2023/06/07 22:46:46;;;;;;;;;;;21.60;57.00;;;;;;10374526;28;88248;-66
2023/06/07 22:51:48;;;;;;;;;;;21.60;56.90;;;;;;10376064;28;88754;-66
2023/06/07 22:56:50;;;;;;;;;;;21.60;56.80;;;;;;10375836;28;89021;-66
2023/06/07 23:01:53;;;;;;;;;;;21.60;56.80;;;;;;10375698;28;90048;-66
2023/06/07 23:06:58;;;;;;;;;;;21.60;56.80;;;;;;10374217;28;90440;-66
2023/06/07 23:12:00;;;;;;;;;;;21.50;56.70;;;;;;10374844;28;89224;-66
2023/06/07 23:17:02;;;;;;;;;;;21.60;56.70;;;;;;10374096;28;90084;-66
2023/06/07 23:22:04;;;;;;;;;;;21.50;56.50;;;;;;10356759;28;89093;-67
2023/06/07 23:27:06;;;;;;;;;;;21.60;56.60;;;;;;10373617;28;89100;-66
2023/06/07 23:32:07;;;;;;;;;;;21.50;56.50;;;;;;10374134;28;89080;-66
2023/06/07 23:37:10;;;;;;;;;;;21.50;56.40;;;;;;10373612;28;89501;-66
2023/06/07 23:42:11;;;;;;;;;;;21.50;56.40;;;;;;10374941;28;89296;-66
2023/06/07 23:47:13;;;;;;;;;;;21.50;56.40;;;;;;10373057;28;89622;-66
2023/06/07 23:52:15;;;;;;;;;;;21.50;56.30;;;;;;10374131;28;88280;-66
2023/06/07 23:57:17;;;;;;;;;;;21.50;56.30;;;;;;10378087;28;89942;-66
